createdAt,value
2023-01-08T08:34:45.849Z,12.60
2023-01-08T08:37:12.818Z,14.10
2023-01-08T08:39:39.551Z,10.20
2023-01-08T08:42:09.269Z,14.40
2023-01-08T08:44:42.944Z,14.90
2023-01-08T08:47:10.219Z,16.30
2023-01-08T08:49:38.745Z,14.90
2023-01-08T08:52:05.653Z,14.10
2023-01-08T08:54:32.371Z,14.70
2023-01-08T08:56:59.126Z,15.10
2023-01-08T08:59:26.126Z,14.60
2023-01-08T09:01:53.197Z,19.60
2023-01-08T09:04:19.949Z,16.90
2023-01-08T09:06:46.693Z,15.60
2023-01-08T09:09:15.056Z,17.80
2023-01-08T09:11:42.025Z,14.10
2023-01-08T09:14:09.438Z,19.60
2023-01-08T09:16:37.188Z,15.80
2023-01-08T09:19:04.293Z,16.70
2023-01-08T09:21:31.142Z,13.60
2023-01-08T09:23:58.185Z,14.90
2023-01-08T09:26:24.948Z,18.70
2023-01-08T09:28:51.773Z,15.40
2023-01-08T09:31:18.591Z,15.00
2023-01-08T09:33:47.680Z,15.90
2023-01-08T09:36:14.549Z,15.30
2023-01-08T09:38:41.392Z,17.50
2023-01-08T09:41:10.559Z,17.70
2023-01-08T09:43:38.867Z,16.80
2023-01-08T09:46:06.567Z,15.20
2023-01-08T09:48:36.009Z,15.10
2023-01-08T09:51:02.959Z,17.70
2023-01-08T09:53:29.820Z,17.30
2023-01-08T09:56:14.475Z,14.10
2023-01-08T09:58:51.870Z,16.40
2023-01-08T10:01:21.791Z,16.90
2023-01-08T10:03:56.010Z,15.60
2023-01-08T10:06:23.360Z,15.50
2023-01-08T10:08:50.527Z,17.30
2023-01-08T10:11:17.439Z,14.20
2023-01-08T10:13:53.310Z,15.30
2023-01-08T12:12:32.583Z,18.50
2023-01-08T12:15:05.182Z,13.80
2023-01-08T12:17:41.240Z,12.40
2023-01-08T12:20:24.496Z,14.20
2023-01-08T12:23:13.276Z,13.30
2023-01-08T12:26:06.277Z,12.60
2023-01-08T12:28:52.457Z,12.50
2023-01-08T12:31:46.376Z,12.30
2023-01-08T12:34:18.723Z,8.80
2023-01-08T12:36:46.890Z,14.50
2023-01-08T12:39:27.230Z,12.70
2023-01-08T12:41:54.512Z,12.00
2023-01-08T12:44:23.556Z,11.60
2023-01-08T12:46:50.202Z,12.30
2023-01-08T12:49:24.296Z,14.70
2023-01-08T12:51:53.862Z,16.40
2023-01-08T12:54:57.150Z,12.20
2023-01-08T12:57:34.076Z,13.30
2023-01-08T13:00:26.325Z,18.00
2023-01-08T13:03:01.239Z,17.80
2023-01-08T13:05:29.678Z,11.90
2023-01-08T13:08:04.372Z,17.90
2023-01-08T13:10:31.042Z,13.30
2023-01-08T13:12:58.440Z,14.80
2023-01-08T13:15:25.948Z,16.80
2023-01-08T13:17:57.563Z,15.00
2023-01-08T13:20:27.539Z,17.70
2023-01-08T13:22:56.176Z,15.80
2023-01-08T13:25:33.100Z,12.70
2023-01-08T13:28:19.549Z,12.80
2023-01-08T13:30:48.562Z,14.50
2023-01-08T13:33:38.922Z,15.90
2023-01-08T13:36:29.720Z,13.00
2023-01-08T13:39:11.717Z,14.40
2023-01-08T13:41:58.771Z,13.80
2023-01-08T13:44:28.264Z,12.00
2023-01-08T13:46:57.413Z,13.70
2023-01-08T13:49:43.897Z,12.10
2023-01-08T13:52:34.394Z,13.90
2023-01-08T13:55:02.672Z,14.00
2023-01-08T13:57:51.171Z,14.60
2023-01-08T14:00:28.782Z,18.20
2023-01-08T14:02:55.533Z,13.40
2023-01-08T14:05:27.656Z,14.10
2023-01-08T14:07:54.494Z,14.80
2023-01-08T14:10:21.937Z,12.60
2023-01-08T14:12:51.451Z,15.20
2023-01-08T14:17:53.331Z,16.30
2023-01-08T14:20:32.301Z,16.50
2023-01-08T14:23:00.833Z,17.60
2023-01-08T14:25:27.890Z,17.10
2023-01-08T14:28:00.424Z,12.60
2023-01-08T14:30:27.299Z,15.60
2023-01-08T14:32:55.571Z,19.00
2023-01-08T14:35:32.054Z,15.70
2023-01-08T14:38:00.651Z,22.20
2023-01-08T14:40:32.703Z,15.80
2023-01-08T14:43:03.066Z,11.10
2023-01-08T14:45:32.066Z,16.30
2023-01-08T14:48:26.768Z,11.80
2023-01-08T14:50:58.206Z,12.90
2023-01-08T14:53:36.310Z,13.20
2023-01-08T14:56:04.262Z,15.20
2023-01-08T14:58:36.873Z,15.90
2023-01-08T15:01:07.835Z,15.30
2023-01-08T15:03:39.301Z,15.00
2023-01-08T15:06:06.888Z,18.70
2023-01-08T15:08:38.895Z,14.10
2023-01-08T15:11:25.839Z,18.60
2023-01-08T15:13:56.680Z,9.30
2023-01-08T15:16:39.829Z,13.90
2023-01-08T15:19:10.176Z,11.70
2023-01-08T15:21:36.818Z,13.40
2023-01-08T15:24:04.732Z,14.50
2023-01-08T15:26:33.431Z,14.90
2023-01-08T15:29:06.780Z,13.10
2023-01-08T15:31:39.355Z,13.30
2023-01-08T15:34:08.000Z,13.60
2023-01-08T15:36:36.786Z,14.10
2023-01-08T15:39:04.471Z,15.40
2023-01-08T15:41:54.907Z,13.20
2023-01-08T15:46:49.117Z,15.50
2023-01-08T15:49:17.101Z,19.50
2023-01-08T15:51:46.159Z,18.40
2023-01-08T15:54:13.228Z,14.60
2023-01-08T15:56:40.099Z,20.00
2023-01-08T15:59:07.249Z,16.40
2023-01-08T16:01:33.967Z,18.50
2023-01-08T16:04:00.762Z,17.20
2023-01-08T16:06:27.445Z,17.50
2023-01-08T16:08:57.255Z,20.50
2023-01-08T16:11:23.895Z,16.30
2023-01-08T16:13:50.898Z,18.80
2023-01-08T16:16:17.926Z,19.00
2023-01-08T16:18:44.994Z,16.50
2023-01-08T16:21:12.009Z,17.60
2023-01-08T16:23:39.339Z,23.00
2023-01-08T16:26:06.747Z,38.50
2023-01-08T16:28:35.071Z,56.70
2023-01-08T16:31:02.220Z,28.50
2023-01-08T16:33:29.095Z,29.20
2023-01-08T16:35:59.780Z,56.20
2023-01-08T16:38:26.636Z,32.40
2023-01-08T16:40:55.854Z,24.50
2023-01-08T16:43:23.932Z,22.90
2023-01-08T16:45:50.926Z,19.10
2023-01-08T16:48:17.902Z,21.20
2023-01-08T16:50:44.736Z,21.00
2023-01-08T16:53:11.722Z,15.80
2023-01-08T16:55:39.529Z,22.10
2023-01-08T16:58:06.895Z,22.20
2023-01-08T17:00:39.159Z,21.10
2023-01-08T17:03:06.743Z,19.30
2023-01-08T17:05:35.951Z,24.70
2023-01-08T17:08:02.710Z,21.80
2023-01-08T17:10:29.934Z,22.50
2023-01-08T17:12:56.678Z,19.60
2023-01-08T17:15:25.867Z,22.80
2023-01-08T17:17:52.761Z,19.60
2023-01-08T17:20:19.738Z,21.50
2023-01-08T17:22:49.061Z,21.30
2023-01-08T17:25:15.697Z,23.30
2023-01-08T17:27:42.842Z,23.80
2023-01-08T17:30:11.206Z,20.90
2023-01-08T17:32:39.197Z,21.50
2023-01-08T17:35:06.635Z,23.70
2023-01-08T17:37:33.412Z,20.50
2023-01-08T17:40:01.511Z,17.50
2023-01-08T17:42:28.966Z,22.00
2023-01-08T17:44:57.583Z,24.50
2023-01-08T17:47:24.755Z,21.70
2023-01-08T17:49:52.346Z,24.00
2023-01-08T17:52:19.328Z,24.70
2023-01-08T17:54:48.969Z,25.20
2023-01-08T17:57:16.472Z,27.20
2023-01-08T17:59:44.267Z,30.30
2023-01-08T18:02:14.911Z,35.50
2023-01-08T18:04:43.203Z,43.70
2023-01-08T18:07:09.816Z,44.30
2023-01-08T19:35:50.092Z,27.20
2023-01-08T19:38:17.442Z,27.70
2023-01-08T19:40:44.258Z,20.80
2023-01-08T19:43:30.774Z,28.20
2023-01-08T19:46:03.616Z,22.70
2023-01-08T19:48:30.654Z,22.00
2023-01-08T19:50:57.590Z,21.20
2023-01-08T19:53:24.376Z,18.60
2023-01-08T19:55:51.099Z,21.30
2023-01-08T19:58:19.859Z,20.70
2023-01-08T20:00:47.164Z,17.80
2023-01-08T20:03:15.078Z,20.20
2023-01-08T20:05:42.345Z,21.20
2023-01-08T20:08:09.153Z,20.30
2023-01-08T20:10:36.020Z,19.60
2023-01-08T20:13:03.287Z,19.10
2023-01-08T20:15:30.371Z,20.60
2023-01-08T20:17:57.577Z,20.30
2023-01-08T20:20:24.615Z,19.80
2023-01-08T20:22:51.463Z,22.30
2023-01-08T20:25:18.420Z,19.50
2023-01-08T20:27:45.455Z,22.30
2023-01-08T20:30:14.855Z,21.60
2023-01-08T20:32:41.981Z,18.80
2023-01-08T20:35:09.342Z,15.90
2023-01-08T20:37:36.316Z,17.90
2023-01-08T20:40:03.251Z,18.20
2023-01-08T20:42:33.976Z,20.00
2023-01-08T20:45:02.057Z,13.10
2023-01-08T20:47:28.900Z,15.30
2023-01-08T20:49:55.726Z,16.00
2023-01-08T20:52:22.451Z,14.50
2023-01-08T20:54:49.262Z,15.50
2023-01-08T20:57:16.021Z,15.60
2023-01-08T20:59:42.900Z,16.60
2023-01-08T21:02:11.502Z,15.70
2023-01-08T21:04:41.711Z,16.40
2023-01-08T21:07:08.544Z,9.10
2023-01-08T21:09:35.511Z,10.50
2023-01-08T21:12:02.278Z,9.80
2023-01-08T21:14:29.040Z,12.90
2023-01-08T21:16:56.643Z,7.90
2023-01-08T21:19:23.472Z,9.70
2023-01-08T21:21:50.328Z,11.60
2023-01-08T21:24:17.105Z,12.00
2023-01-08T21:26:44.599Z,12.40
2023-01-08T21:29:12.092Z,13.10
2023-01-08T21:31:39.081Z,11.90
2023-01-08T21:34:06.366Z,8.30
2023-01-08T21:36:34.513Z,11.80
2023-01-08T21:39:01.660Z,9.30
2023-01-08T21:41:47.761Z,9.30
2023-01-08T21:44:40.258Z,9.80
2023-01-08T21:47:09.223Z,10.10
2023-01-08T21:49:36.274Z,9.20
2023-01-08T21:52:22.428Z,8.90
2023-01-08T21:54:49.549Z,10.80
2023-01-08T21:57:16.889Z,9.30
2023-01-08T21:59:43.673Z,16.50
2023-01-08T22:02:18.300Z,13.00
2023-01-08T22:04:45.261Z,14.40
2023-01-08T22:07:12.955Z,15.10
2023-01-08T22:09:39.773Z,9.50
2023-01-08T22:12:07.316Z,10.10
2023-01-08T22:14:34.732Z,9.60
2023-01-08T22:17:04.121Z,11.80
2023-01-08T22:19:31.020Z,10.90
2023-01-08T22:21:57.767Z,9.00
2023-01-08T22:24:24.507Z,11.10
2023-01-08T22:26:51.318Z,11.00
2023-01-08T22:29:18.246Z,11.30
2023-01-08T22:31:45.024Z,11.40
2023-01-08T22:34:17.085Z,9.30
2023-01-08T22:36:44.900Z,11.80
2023-01-08T22:39:11.926Z,12.50
2023-01-08T22:41:38.832Z,9.70
2023-01-08T22:44:05.747Z,10.80
2023-01-08T22:46:32.542Z,11.60
2023-01-08T22:48:59.320Z,11.20
2023-01-08T22:51:29.148Z,12.40
2023-01-08T22:53:56.814Z,11.40
2023-01-08T22:56:23.952Z,12.40
2023-01-08T22:58:50.791Z,11.90
2023-01-08T23:01:19.831Z,12.20
2023-01-08T23:03:50.678Z,13.40
2023-01-08T23:06:17.768Z,10.90
2023-01-08T23:08:45.230Z,9.80
2023-01-08T23:11:14.902Z,12.00
2023-01-08T23:13:41.784Z,13.10
2023-01-08T23:16:09.981Z,11.50
2023-01-08T23:18:37.005Z,9.70
2023-01-08T23:21:05.184Z,8.60
2023-01-08T23:23:32.081Z,9.80
2023-01-08T23:26:10.644Z,8.60
2023-01-08T23:28:37.682Z,10.90
2023-01-08T23:31:08.723Z,12.50
2023-01-08T23:33:35.545Z,9.70
2023-01-08T23:36:03.121Z,10.50
2023-01-08T23:38:29.912Z,9.60
2023-01-08T23:40:56.859Z,10.80
2023-01-08T23:43:23.763Z,10.50
2023-01-08T23:45:50.741Z,12.50
2023-01-08T23:48:17.507Z,12.40
2023-01-08T23:50:44.318Z,10.40
2023-01-08T23:53:11.055Z,10.30
2023-01-08T23:55:37.837Z,13.60
2023-01-08T23:58:04.501Z,12.80
